Time;durP1;ratioP1;P1;durP2;ratioP2;P2;SDS_P1;SDS_P2;PMS_P1;PMS_P2;Temp;Humidity;BMP_temperature;BMP_pressure;BME280_temperature;BME280_humidity;BME280_pressure;Samples;Min_cycle;Max_cycle;Signal;HPM_P1;HPM_P2
2024/01/13 00:02:23;;;;;;;;;44.67;32.67;;;;;3.59;92.51;102354.34;4917578;29;46304;-82
2024/01/13 00:04:48;;;;;;;;;45.33;41.67;;;;;3.58;91.46;102344.66;4900684;28;44907;-82
2024/01/13 00:07:14;;;;;;;;;47.33;42.67;;;;;3.52;91.56;102341.59;4901132;29;44869;-82
2024/01/13 00:09:39;;;;;;;;;32.67;27.67;;;;;3.59;92.13;102347.38;4902221;28;44885;-82
2024/01/13 00:12:05;;;;;;;;;38.67;32.67;;;;;3.58;92.37;102328.88;4895021;29;46994;-81
2024/01/13 00:14:30;;;;;;;;;49.67;38.00;;;;;3.62;91.77;102338.78;4897902;28;44968;-82
2024/01/13 00:16:56;;;;;;;;;42.00;32.00;;;;;3.59;91.59;102328.94;4913584;28;45260;-81
2024/01/13 00:19:21;;;;;;;;;42.33;32.67;;;;;3.60;91.99;102327.25;4899258;28;45041;-82
2024/01/13 00:25:46;;;;;;;;;39.00;37.00;;;;;3.80;91.16;102318.97;4897442;29;44928;-82
2024/01/13 00:28:12;;;;;;;;;43.00;35.67;;;;;3.69;90.97;102312.06;4898052;28;45239;-81
2024/01/13 00:30:37;;;;;;;;;44.33;37.00;;;;;3.65;91.09;102311.78;4915064;29;44959;-82
2024/01/13 00:33:03;;;;;;;;;27.67;25.00;;;;;3.65;90.82;102307.41;4897901;29;46929;-82
2024/01/13 00:35:28;;;;;;;;;37.33;37.33;;;;;3.65;90.96;102296.88;4914383;29;44865;-83
2024/01/13 00:38:43;;;;;;;;;34.00;27.00;;;;;3.73;90.45;102303.56;4898588;29;44967;-82
2024/01/13 00:41:09;;;;;;;;;33.00;29.33;;;;;3.50;91.11;102303.75;4915413;29;44845;-82
2024/01/13 00:43:35;;;;;;;;;44.75;37.75;;;;;3.47;91.58;102295.66;4896682;29;47150;-82
2024/01/13 00:46:00;;;;;;;;;46.00;41.33;;;;;3.42;91.88;102304.97;4914685;28;44893;-83
2024/01/13 00:48:26;;;;;;;;;50.33;41.67;;;;;3.39;92.09;102308.28;4914511;29;44858;-82
2024/01/13 00:50:51;;;;;;;;;42.33;40.33;;;;;3.32;92.46;102300.78;4913607;28;44816;-81
2024/01/13 00:53:16;;;;;;;;;49.33;40.33;;;;;3.30;92.87;102300.69;4915495;28;46004;-82
2024/01/13 00:55:42;;;;;;;;;33.33;31.33;;;;;3.34;92.89;102301.81;4898942;29;44837;-82
2024/01/13 00:58:07;;;;;;;;;47.33;36.00;;;;;3.40;92.74;102294.34;4914424;28;45302;-81
2024/01/13 01:00:32;;;;;;;;;45.33;38.33;;;;;3.38;92.50;102294.22;4916238;28;44790;-82
2024/01/13 01:02:58;;;;;;;;;44.00;39.33;;;;;3.48;92.50;102301.03;4915832;29;45752;-81
2024/01/13 01:05:23;;;;;;;;;47.00;34.33;;;;;3.56;92.50;102306.81;4914799;29;44765;-81
2024/01/13 01:07:48;;;;;;;;;40.67;37.33;;;;;3.50;92.14;102290.63;4915596;29;45101;-82
2024/01/13 01:10:15;;;;;;;;;51.33;40.67;;;;;3.54;92.32;102297.91;4899033;29;45053;-81
2024/01/13 01:12:40;;;;;;;;;54.00;43.50;;;;;3.55;91.57;102305.88;4898690;29;47196;-82
2024/01/13 01:15:43;;;;;;;;;47.50;39.25;;;;;3.59;92.56;102297.38;4915238;29;45103;-82
2024/01/13 01:18:09;;;;;;;;;47.67;38.33;;;;;3.36;92.84;102295.84;4898513;28;45191;-82
2024/01/13 01:20:34;;;;;;;;;40.33;33.67;;;;;3.35;92.84;102298.34;4914166;28;44896;-82
2024/01/13 01:23:00;;;;;;;;;38.00;30.00;;;;;3.34;92.86;102286.03;4914894;28;45558;-82
2024/01/13 01:25:25;;;;;;;;;42.00;28.33;;;;;3.32;92.69;102295.53;4913803;29;45908;-82
2024/01/13 01:27:50;;;;;;;;;39.67;30.67;;;;;3.29;92.86;102288.34;4896778;28;52484;-80
2024/01/13 01:30:16;;;;;;;;;38.67;31.67;;;;;3.32;93.01;102291.16;4913057;29;45066;-81
2024/01/13 01:32:42;;;;;;;;;37.00;29.00;;;;;3.36;92.74;102298.47;4897966;29;45379;-81
2024/01/13 01:35:07;;;;;;;;;39.00;30.67;;;;;3.38;92.81;102299.47;4914915;29;44978;-82
2024/01/13 01:37:33;;;;;;;;;43.67;41.00;;;;;3.45;92.57;102300.78;4913879;28;44783;-81
2024/01/13 01:39:59;;;;;;;;;48.67;33.67;;;;;3.45;92.07;102299.91;4912938;29;44895;-81
2024/01/13 01:42:24;;;;;;;;;37.33;30.67;;;;;3.43;92.10;102297.16;4897712;28;47437;-82
2024/01/13 01:44:50;;;;;;;;;48.00;38.67;;;;;3.45;92.31;102294.63;4915052;29;44817;-82
2024/01/13 01:47:18;;;;;;;;;46.67;40.33;;;;;3.52;91.99;102297.78;4914534;29;44879;-81
2024/01/13 01:49:44;;;;;;;;;34.67;24.67;;;;;3.38;92.23;102283.69;4897071;28;45296;-82
2024/01/13 01:52:11;;;;;;;;;27.50;20.50;;;;;3.44;91.97;102293.72;4897102;28;47605;-82
2024/01/13 01:54:37;;;;;;;;;40.75;35.50;;;;;3.47;91.85;102290.38;4912529;28;45394;-82
2024/01/13 01:57:04;;;;;;;;;46.67;42.00;;;;;3.41;92.16;102288.25;4914391;28;45269;-82
2024/01/13 01:59:30;;;;;;;;;54.67;41.33;;;;;3.35;92.08;102294.03;4911701;29;44822;-82
2024/01/13 02:01:56;;;;;;;;;50.33;38.67;;;;;3.37;92.42;102296.72;4910371;29;47095;-81
2024/01/13 02:04:22;;;;;;;;;46.33;36.67;;;;;3.34;92.83;102294.81;4896127;28;45050;-81
2024/01/13 02:06:48;;;;;;;;;51.00;44.25;;;;;3.34;92.86;102296.53;4912751;28;44852;-82
2024/01/13 02:09:14;;;;;;;;;41.00;35.00;;;;;3.34;92.90;102286.94;4896568;29;45164;-82
2024/01/13 02:11:39;;;;;;;;;53.67;39.67;;;;;3.34;92.63;102286.94;4913454;28;45386;-82
2024/01/13 02:14:05;;;;;;;;;33.00;28.00;;;;;3.36;92.98;102269.53;4913790;28;44800;-82
2024/01/13 02:16:31;;;;;;;;;36.67;33.33;;;;;3.40;92.88;102271.56;4896577;28;45228;-82
2024/01/13 02:18:57;;;;;;;;;33.00;30.67;;;;;3.46;92.87;102275.44;4911049;28;44914;-82
2024/01/13 02:21:22;;;;;;;;;46.33;36.67;;;;;3.51;92.45;102274.91;4896202;29;47362;-82
2024/01/13 02:23:48;;;;;;;;;40.33;33.67;;;;;3.44;92.30;102274.41;4911667;28;44797;-82
2024/01/13 02:26:13;;;;;;;;;49.33;41.00;;;;;3.33;92.83;102271.97;4896235;28;45088;-82
2024/01/13 02:28:39;;;;;;;;;32.33;27.67;;;;;3.28;92.38;102269.84;4912963;29;45403;-82
2024/01/13 06:24:45;;;;;;;;;37.00;28.33;;;;;3.74;89.13;102046.66;5540975;23;46732;-82
2024/01/13 06:27:10;;;;;;;;;28.00;25.33;;;;;3.65;88.82;102033.78;4884513;29;45861;-83
2024/01/13 06:29:36;;;;;;;;;29.67;26.33;;;;;3.71;89.13;102026.28;4884036;29;45464;-83
2024/01/13 06:32:01;;;;;;;;;34.33;26.67;;;;;3.69;88.39;102027.91;4884163;29;45550;-83
2024/01/13 06:34:26;;;;;;;;;36.33;30.00;;;;;3.54;87.96;102025.25;4881554;29;46672;-83
2024/01/13 06:36:59;;;;;;;;;36.00;35.67;;;;;3.57;88.78;102029.78;4880573;29;45395;-83
2024/01/13 06:39:24;;;;;;;;;32.67;29.67;;;;;3.43;89.08;102026.28;4880486;29;45497;-82
2024/01/13 06:41:50;;;;;;;;;37.00;30.33;;;;;3.57;88.64;102048.19;4881219;29;45554;-82
2024/01/13 06:44:15;;;;;;;;;42.00;35.33;;;;;3.51;88.12;102039.91;4881556;29;46732;-82
2024/01/13 06:46:40;;;;;;;;;35.67;32.67;;;;;3.43;87.99;102047.31;4866411;29;45851;-84
2024/01/13 06:49:06;;;;;;;;;35.33;30.00;;;;;3.31;87.90;102050.09;4867604;29;45470;-83
2024/01/13 06:51:31;;;;;;;;;32.67;27.00;;;;;3.31;88.40;102055.34;4883365;29;45801;-82
2024/01/13 06:53:57;;;;;;;;;26.33;20.67;;;;;3.35;88.64;102049.47;4867275;29;48963;-83
2024/01/13 06:56:22;;;;;;;;;40.33;30.00;;;;;3.38;88.60;102051.38;4884980;29;45414;-83
2024/01/13 06:58:47;;;;;;;;;31.00;27.33;;;;;3.34;89.16;102039.75;4885586;29;45448;-82
2024/01/13 07:01:14;;;;;;;;;25.67;20.67;;;;;3.40;89.28;102026.09;4870100;29;45488;-83
2024/01/13 07:03:41;;;;;;;;;38.00;32.00;;;;;3.37;88.79;102045.22;4886079;28;46043;-82
2024/01/13 07:06:06;;;;;;;;;26.33;19.67;;;;;3.38;89.28;102046.13;4868498;29;45719;-82
2024/01/13 07:08:31;;;;;;;;;24.67;23.33;;;;;3.32;88.39;102040.47;4869282;29;44838;-82
2024/01/13 07:10:57;;;;;;;;;29.00;27.67;;;;;3.30;89.20;102032.47;4885242;29;45561;-83
2024/01/13 07:13:22;;;;;;;;;28.67;24.00;;;;;3.32;89.35;102035.22;4883065;29;47007;-82
2024/01/13 07:15:48;;;;;;;;;30.33;28.67;;;;;3.32;88.90;102035.22;4883130;29;44980;-82
2024/01/13 07:18:14;;;;;;;;;28.00;19.67;;;;;3.36;89.04;102042.50;4885987;29;44895;-82
2024/01/13 07:20:40;;;;;;;;;31.00;29.67;;;;;3.23;88.64;102035.50;4886477;29;45673;-82
2024/01/13 07:23:05;;;;;;;;;28.00;25.00;;;;;3.23;89.00;102031.97;4888341;29;45391;-82
2024/01/13 07:25:31;;;;;;;;;31.33;28.67;;;;;3.21;88.76;102037.13;4886947;29;45756;-82
2024/01/13 07:27:57;;;;;;;;;32.67;28.00;;;;;3.29;89.47;102035.94;4891649;29;45329;-83
2024/01/13 07:30:22;;;;;;;;;27.67;23.00;;;;;3.22;89.47;102025.81;4874122;29;45375;-83
2024/01/13 07:32:48;;;;;;;;;36.67;29.67;;;;;3.17;88.97;102021.97;4889723;28;45260;-82
2024/01/13 07:35:14;;;;;;;;;35.00;28.33;;;;;3.27;89.39;102034.91;4888852;29;45336;-82
2024/01/13 07:37:40;;;;;;;;;37.33;28.33;;;;;3.33;89.43;102037.94;4857160;29;45331;-82
2024/01/13 07:40:06;;;;;;;;;29.00;25.00;;;;;3.32;89.16;102022.06;4891776;28;45326;-82
2024/01/13 09:25:20;;;;;;;;;35.67;30.67;;;;;3.92;87.27;102020.53;5506004;23;46995;-81
2024/01/13 09:27:46;;;;;;;;;45.67;34.33;;;;;3.67;87.38;102008.50;4906242;28;45118;-82
2024/01/13 09:30:12;;;;;;;;;38.00;35.33;;;;;3.60;87.62;101996.69;4906326;28;44761;-83
2024/01/13 09:32:37;;;;;;;;;35.00;30.00;;;;;3.65;88.03;101994.34;4907467;28;44781;-83
2024/01/13 09:35:04;;;;;;;;;44.33;37.33;;;;;3.85;87.82;101998.19;4906436;28;44825;-83
2024/01/13 09:37:30;;;;;;;;;36.00;30.33;;;;;3.71;88.06;102004.34;4906523;28;47758;-82
2024/01/13 09:39:55;;;;;;;;;40.33;38.67;;;;;3.65;88.06;102007.50;4890780;28;44971;-82
2024/01/13 09:42:29;;;;;;;;;36.33;31.00;;;;;3.81;88.34;102022.50;4905792;28;44914;-83
2024/01/13 09:45:00;;;;;;;;;33.33;32.00;;;;;3.66;87.94;102021.56;4905236;29;44864;-83
2024/01/13 09:47:27;;;;;;;;;42.33;38.00;;;;;3.66;87.51;102001.44;4906006;28;45187;-83
2024/01/13 09:49:53;;;;;;;;;41.33;32.33;;;;;3.59;87.38;102015.91;4904916;29;44807;-84
2024/01/13 09:52:20;;;;;;;;;35.33;28.67;;;;;3.51;88.13;102013.59;4905850;28;44830;-82
2024/01/13 09:54:54;;;;;;;;;43.00;34.67;;;;;3.62;87.86;102041.50;4905941;28;44942;-83
2024/01/13 09:57:20;;;;;;;;;42.67;34.33;;;;;3.46;87.96;102050.16;4904719;28;45604;-83
2024/01/13 09:59:46;;;;;;;;;39.67;32.67;;;;;3.53;88.35;102046.19;4904020;29;45314;-83
2024/01/13 10:02:15;;;;;;;;;40.67;33.00;;;;;3.60;88.11;102053.66;4903634;29;44836;-83
2024/01/13 10:04:43;;;;;;;;;44.33;30.67;;;;;3.72;88.03;102048.28;4904862;28;44725;-82
2024/01/13 10:07:10;;;;;;;;;32.67;27.00;;;;;3.69;87.68;102045.44;4886490;29;45188;-82
2024/01/13 10:09:35;;;;;;;;;39.67;31.67;;;;;3.70;86.98;102042.91;4885929;29;44895;-82
2024/01/13 10:12:06;;;;;;;;;43.67;33.67;;;;;3.76;87.20;102039.75;4904471;28;44816;-82
2024/01/13 10:14:33;;;;;;;;;38.33;31.67;;;;;3.69;87.39;102027.91;4905563;28;44769;-82
2024/01/13 10:17:03;;;;;;;;;32.00;29.33;;;;;3.88;87.19;102034.31;4897257;29;47291;-81
2024/01/13 10:19:29;;;;;;;;;34.33;31.00;;;;;3.74;86.74;102026.50;4872827;29;45273;-83
2024/01/13 10:21:55;;;;;;;;;39.00;31.00;;;;;3.80;86.99;102033.88;4855503;29;45303;-82
2024/01/13 10:24:20;;;;;;;;;43.00;34.00;;;;;3.80;86.97;102005.81;4873499;29;45253;-82
2024/01/13 10:26:45;;;;;;;;;41.67;36.33;;;;;3.93;86.49;101999.56;4870344;29;45496;-82
2024/01/13 10:29:13;;;;;;;;;37.33;31.33;;;;;4.03;85.26;102013.31;4872332;29;44818;-82
2024/01/13 10:31:38;;;;;;;;;37.00;33.00;;;;;3.96;85.33;102017.31;4870990;29;44874;-81
2024/01/13 10:34:10;;;;;;;;;47.67;41.67;;;;;4.14;85.45;102012.22;4871009;29;44818;-82
2024/01/13 10:36:35;;;;;;;;;31.67;29.00;;;;;4.00;85.15;102016.69;4854775;29;47055;-82
2024/01/13 10:39:01;;;;;;;;;25.33;21.33;;;;;4.08;85.53;102002.25;4871191;29;45193;-82
2024/01/13 10:41:29;;;;;;;;;38.67;34.67;;;;;4.26;85.82;101996.25;4838412;29;45341;-83
2024/01/13 10:43:55;;;;;;;;;28.67;23.33;;;;;4.29;85.87;101989.47;4869747;29;44982;-82
2024/01/13 10:46:26;;;;;;;;;43.00;35.67;;;;;4.50;85.59;101981.91;4852797;29;45824;-82
2024/01/13 10:48:59;;;;;;;;;41.67;35.67;;;;;4.60;85.42;101984.28;4853376;29;45759;-82
2024/01/13 10:51:42;;;;;;;;;35.67;26.33;;;;;4.66;82.68;101974.91;4869664;29;44863;-82
2024/01/13 10:54:09;;;;;;;;;27.00;24.00;;;;;4.47;83.42;101971.19;4869762;29;45415;-82
2024/01/13 10:56:38;;;;;;;;;41.33;35.67;;;;;4.43;83.25;101974.47;4851895;29;47182;-82
2024/01/13 10:59:04;;;;;;;;;43.00;36.00;;;;;4.40;84.01;101963.75;4869277;29;44771;-82
2024/01/13 11:01:31;;;;;;;;;39.67;33.33;;;;;4.40;84.83;101940.97;4853160;29;45125;-83
2024/01/13 11:03:58;;;;;;;;;51.00;38.00;;;;;4.56;84.20;101940.09;4868370;29;45474;-82
2024/01/13 11:06:30;;;;;;;;;44.33;37.33;;;;;4.73;84.56;101937.56;4851367;29;47156;-82
2024/01/13 11:08:56;;;;;;;;;49.67;39.67;;;;;4.58;82.51;101942.84;4867677;29;44971;-82
2024/01/13 11:11:27;;;;;;;;;43.67;40.00;;;;;4.53;81.87;101933.78;4851889;29;45470;-82
2024/01/13 11:14:08;;;;;;;;;38.33;33.00;;;;;4.36;81.73;101920.53;4853409;29;44894;-83
2024/01/13 11:16:37;;;;;;;;;37.33;33.33;;;;;4.25;82.69;101926.00;4870556;29;44961;-83
2024/01/13 11:19:02;;;;;;;;;43.67;37.33;;;;;4.06;82.56;101923.97;4864330;29;44866;-82
2024/01/13 11:21:30;;;;;;;;;39.33;36.00;;;;;4.06;82.42;101930.19;4820554;29;45433;-83
2024/01/13 11:24:20;;;;;;;;;50.33;42.67;;;;;4.13;83.85;101921.81;4834230;29;45437;-82
2024/01/13 11:26:49;;;;;;;;;35.33;32.00;;;;;4.13;83.73;101916.53;4848918;29;45084;-82
2024/01/13 11:29:16;;;;;;;;;36.00;29.67;;;;;4.21;83.39;101912.63;4834881;29;45020;-82
2024/01/13 11:31:43;;;;;;;;;30.67;23.00;;;;;4.38;83.28;101912.69;4851898;29;44937;-82
2024/01/13 11:34:11;;;;;;;;;36.67;32.33;;;;;4.48;83.29;101915.06;4850193;29;44835;-82
2024/01/13 11:36:41;;;;;;;;;35.67;32.33;;;;;4.61;83.42;101912.31;4849154;29;46243;-82
2024/01/13 11:39:08;;;;;;;;;43.67;37.33;;;;;4.54;80.84;101903.97;4834026;29;45544;-82
2024/01/13 11:41:39;;;;;;;;;37.33;35.67;;;;;4.55;81.75;101889.97;4834145;29;44956;-83
2024/01/13 11:44:06;;;;;;;;;45.67;37.00;;;;;4.32;81.36;101891.28;4831881;29;45358;-82
2024/01/13 11:46:35;;;;;;;;;39.00;36.67;;;;;4.28;79.98;101899.81;4833146;29;47260;-82
2024/01/13 11:49:04;;;;;;;;;38.33;35.67;;;;;4.12;80.68;101896.31;4831494;29;45418;-81
2024/01/13 11:51:59;;;;;;;;;36.67;34.33;;;;;4.13;81.07;101874.41;4816530;29;44986;-81
2024/01/13 11:54:26;;;;;;;;;42.00;34.00;;;;;3.97;79.83;101887.50;4836269;29;44857;-82
2024/01/13 11:56:52;;;;;;;;;38.33;33.00;;;;;4.00;80.72;101880.69;4831713;29;47227;-82
2024/01/13 11:59:25;;;;;;;;;40.33;35.33;;;;;3.99;79.72;101883.25;4833537;29;44821;-82
2024/01/13 12:01:54;;;;;;;;;29.33;28.67;;;;;4.06;81.50;101874.91;4833833;29;44822;-82
2024/01/13 12:04:20;;;;;;;;;32.00;28.33;;;;;4.05;82.07;101864.28;4833827;29;44993;-82
2024/01/13 12:06:46;;;;;;;;;45.33;36.67;;;;;4.23;81.61;101851.28;4830505;29;47218;-82
2024/01/13 12:09:15;;;;;;;;;33.67;23.67;;;;;4.36;81.29;101849.44;4850408;29;44856;-82
2024/01/13 12:11:40;;;;;;;;;35.67;32.67;;;;;4.50;81.06;101859.81;4852789;29;45434;-82
2024/01/13 12:14:06;;;;;;;;;37.67;29.33;;;;;4.58;80.30;101855.88;4835469;29;45082;-82
2024/01/13 12:16:33;;;;;;;;;30.67;27.67;;;;;4.52;80.53;101859.09;4851889;29;45566;-82
2024/01/13 12:18:59;;;;;;;;;42.67;35.33;;;;;4.37;79.80;101837.16;4851875;29;45476;-82
2024/01/13 12:21:26;;;;;;;;;30.67;30.67;;;;;4.39;80.27;101846.06;4821616;29;45328;-82
2024/01/13 12:24:41;;;;;;;;;49.33;41.33;;;;;4.49;78.21;101837.84;4854252;29;44753;-83
2024/01/13 12:27:06;;;;;;;;;31.67;27.00;;;;;4.22;79.96;101821.38;4850387;29;46247;-83
2024/01/13 12:29:33;;;;;;;;;33.00;30.67;;;;;4.20;80.14;101838.81;4852485;29;44880;-83
2024/01/13 12:32:00;;;;;;;;;28.00;28.00;;;;;4.21;80.47;101822.22;4853538;29;44834;-82
2024/01/13 12:34:26;;;;;;;;;35.50;31.50;;;;;4.38;80.38;101815.25;4834961;29;45003;-82
2024/01/13 12:36:54;;;;;;;;;31.67;28.67;;;;;4.52;79.40;101811.66;4832476;29;47344;-82
2024/01/13 12:39:20;;;;;;;;;38.33;32.67;;;;;4.43;78.84;101821.69;4831920;29;46137;-82
2024/01/13 12:41:47;;;;;;;;;41.33;33.33;;;;;4.45;80.12;101822.69;4849085;29;45480;-82
2024/01/13 12:44:12;;;;;;;;;36.00;30.33;;;;;4.48;80.10;101801.78;4849089;29;45369;-82
2024/01/13 12:46:38;;;;;;;;;39.00;33.67;;;;;4.46;79.85;101774.44;4830610;29;46898;-82
2024/01/13 12:49:17;;;;;;;;;41.33;34.33;;;;;4.78;79.89;101793.75;4831432;29;45305;-81
2024/01/13 12:51:47;;;;;;;;;34.00;27.33;;;;;4.84;79.74;101802.00;4850363;29;45362;-83
2024/01/13 12:54:16;;;;;;;;;29.33;27.67;;;;;4.84;79.51;101794.09;4833154;29;44917;-82
2024/01/13 12:56:43;;;;;;;;;32.67;31.00;;;;;4.69;79.67;101778.38;4849687;29;45272;-82
2024/01/13 12:59:09;;;;;;;;;35.33;30.33;;;;;4.76;79.57;101790.13;4848042;29;45471;-82
2024/01/13 13:01:34;;;;;;;;;38.67;30.00;;;;;4.61;77.75;101790.22;4849433;29;45240;-82
2024/01/13 13:04:12;;;;;;;;;38.33;33.67;;;;;4.44;79.59;101775.19;4834238;29;44963;-82
2024/01/13 13:06:40;;;;;;;;;32.33;28.67;;;;;4.38;79.58;101775.75;4851456;29;46439;-82
2024/01/13 13:09:09;;;;;;;;;33.00;29.67;;;;;4.27;79.31;101764.63;4833866;29;45466;-82
2024/01/13 13:11:35;;;;;;;;;36.00;33.00;;;;;4.14;79.31;101770.94;4834662;29;45496;-81
2024/01/13 13:14:02;;;;;;;;;31.67;31.67;;;;;4.11;79.52;101769.84;4818569;29;45403;-82
2024/01/13 13:16:32;;;;;;;;;37.33;31.67;;;;;4.04;80.18;101768.59;4833666;29;47494;-82
2024/01/13 13:18:58;;;;;;;;;34.67;31.67;;;;;3.88;79.89;101755.38;4832249;29;45059;-81
2024/01/13 13:21:23;;;;;;;;;40.67;39.67;;;;;3.87;80.75;101751.84;4834005;29;44880;-82
2024/01/13 13:23:49;;;;;;;;;43.33;38.33;;;;;3.90;81.09;101754.66;4851888;29;45379;-82
2024/01/13 13:26:15;;;;;;;;;39.00;36.33;;;;;3.96;80.66;101746.22;4848466;29;45283;-81
2024/01/13 13:28:41;;;;;;;;;38.00;27.33;;;;;3.97;81.18;101730.47;4849905;29;45197;-82
2024/01/13 13:31:07;;;;;;;;;32.00;28.00;;;;;4.10;81.53;101731.16;4853226;29;45411;-82
2024/01/13 13:33:33;;;;;;;;;37.33;29.00;;;;;4.19;81.37;101729.97;4849444;29;45470;-81
2024/01/13 13:35:59;;;;;;;;;38.67;33.67;;;;;4.26;80.65;101730.31;4832431;29;47244;-81
2024/01/13 13:38:25;;;;;;;;;23.67;19.00;;;;;4.24;80.82;101729.31;4848167;29;44913;-83
2024/01/13 13:40:50;;;;;;;;;34.00;28.33;;;;;4.27;81.16;101724.22;4847801;29;44769;-81
2024/01/13 13:43:16;;;;;;;;;32.33;28.67;;;;;4.35;79.68;101737.00;4850471;29;45480;-82
2024/01/13 13:45:45;;;;;;;;;31.67;28.33;;;;;4.30;80.26;101729.66;4832509;29;46849;-82
2024/01/13 13:48:11;;;;;;;;;31.67;27.33;;;;;4.40;80.10;101730.25;4849832;29;45462;-82
2024/01/13 13:50:40;;;;;;;;;31.00;30.67;;;;;4.51;80.53;101736.09;4850745;29;45133;-82
2024/01/13 13:53:06;;;;;;;;;33.67;31.67;;;;;4.40;79.28;101727.63;4848700;29;44795;-82
2024/01/13 13:55:34;;;;;;;;;45.67;37.33;;;;;4.30;79.28;101724.38;4849051;29;45595;-82
2024/01/13 13:58:00;;;;;;;;;37.33;29.00;;;;;4.38;79.03;101729.28;4849526;29;45486;-82
2024/01/13 14:00:25;;;;;;;;;36.33;29.33;;;;;4.40;79.08;101721.44;4832852;29;45596;-83
2024/01/13 14:02:51;;;;;;;;;37.00;33.33;;;;;4.43;78.91;101721.63;4848738;29;45338;-82
2024/01/13 14:05:16;;;;;;;;;30.33;30.33;;;;;4.45;78.74;101714.69;4851509;29;47318;-82
2024/01/13 14:07:42;;;;;;;;;35.00;31.00;;;;;4.47;78.60;101707.78;4854451;29;45673;-83
2024/01/13 14:10:07;;;;;;;;;27.67;25.33;;;;;4.60;78.48;101712.91;4860566;29;44855;-84
2024/01/13 14:15:54;;;;;;;;;29.00;27.67;;;;;4.58;77.78;101705.72;4854570;29;45026;-83
2024/01/13 14:18:21;;;;;;;;;33.67;27.33;;;;;4.52;78.19;101703.66;4834898;29;46185;-82
2024/01/13 14:20:46;;;;;;;;;25.00;19.00;;;;;4.50;77.86;101702.66;4833287;29;45362;-83
2024/01/13 14:23:12;;;;;;;;;25.67;21.33;;;;;4.40;76.76;101692.47;4852949;29;44755;-84
2024/01/13 14:25:37;;;;;;;;;37.33;31.00;;;;;4.30;76.71;101687.53;4832989;29;47123;-84
2024/01/13 14:28:05;;;;;;;;;38.33;32.33;;;;;4.25;77.11;101684.66;4847381;29;44785;-83
2024/01/13 14:30:31;;;;;;;;;36.33;32.00;;;;;4.13;78.07;101670.81;4869330;29;45478;-82
2024/01/13 14:32:56;;;;;;;;;25.67;22.00;;;;;4.21;78.29;101673.03;4869741;29;44845;-82
2024/01/13 14:35:21;;;;;;;;;40.33;31.33;;;;;4.25;78.13;101675.84;4866586;29;45564;-82
2024/01/13 14:37:50;;;;;;;;;24.00;24.00;;;;;4.39;78.46;101677.50;4851648;29;45400;-82
2024/01/13 14:40:17;;;;;;;;;31.67;28.00;;;;;4.38;78.18;101673.97;4851003;29;45415;-82
2024/01/13 14:42:49;;;;;;;;;34.67;30.67;;;;;4.32;77.31;101665.75;4835440;29;45145;-83
2024/01/13 14:45:14;;;;;;;;;30.00;28.67;;;;;4.31;76.47;101674.44;4825115;29;46457;-82
2024/01/13 14:47:43;;;;;;;;;32.33;28.33;;;;;4.27;76.63;101672.47;4870313;29;45513;-82
2024/01/13 14:50:10;;;;;;;;;39.33;33.33;;;;;4.20;77.66;101660.72;4869344;29;44848;-82
2024/01/13 14:52:35;;;;;;;;;33.33;30.00;;;;;4.13;77.20;101666.44;4847671;29;44931;-82
2024/01/13 14:55:01;;;;;;;;;32.00;32.00;;;;;4.18;77.88;101667.63;4833813;29;47249;-82
2024/01/13 14:57:27;;;;;;;;;35.00;29.00;;;;;4.21;77.02;101677.41;4832316;29;45553;-83
2024/01/13 14:59:53;;;;;;;;;36.67;32.67;;;;;4.19;77.44;101677.31;4836155;29;45313;-83
2024/01/13 15:05:41;;;;;;;;;31.67;30.67;;;;;4.30;77.71;101672.66;4872415;29;44844;-83
2024/01/13 15:08:07;;;;;;;;;38.00;35.67;;;;;4.37;77.66;101684.41;4853807;29;45470;-83
2024/01/13 15:10:32;;;;;;;;;32.00;29.33;;;;;4.39;77.42;101693.31;4870109;29;45486;-83
2024/01/13 15:13:00;;;;;;;;;39.00;28.67;;;;;4.31;76.74;101686.72;4853378;29;45437;-83
2024/01/13 15:18:47;;;;;;;;;33.67;29.00;;;;;4.32;77.10;101681.53;4868807;29;45281;-84
2024/01/13 15:21:13;;;;;;;;;40.67;32.33;;;;;4.27;77.28;101679.47;4852022;29;44947;-82
2024/01/13 15:23:38;;;;;;;;;31.00;25.00;;;;;4.10;77.15;101684.72;4852067;29;44942;-83
2024/01/13 15:26:04;;;;;;;;;32.00;31.00;;;;;4.05;76.94;101686.16;4847480;29;47177;-83
2024/01/13 15:28:29;;;;;;;;;40.67;35.00;;;;;4.03;77.61;101700.97;4846154;29;45451;-83
2024/01/13 15:30:56;;;;;;;;;40.67;32.33;;;;;4.01;76.62;101689.47;4847228;29;45551;-83
2024/01/13 15:33:21;;;;;;;;;30.00;28.67;;;;;3.90;77.18;101687.94;4849445;29;45444;-82
2024/01/13 15:35:46;;;;;;;;;47.00;35.00;;;;;3.81;76.82;101693.59;4845025;29;46082;-83
2024/01/13 15:38:14;;;;;;;;;39.00;33.67;;;;;3.72;77.72;101687.84;4845737;29;45237;-82
2024/01/13 15:40:40;;;;;;;;;38.67;33.67;;;;;3.76;78.19;101688.09;4844377;29;45432;-82
2024/01/13 15:43:05;;;;;;;;;44.67;36.67;;;;;3.67;77.53;101690.19;4848554;29;45449;-83
2024/01/13 15:45:31;;;;;;;;;40.67;32.00;;;;;3.60;77.79;101690.66;4849537;29;47011;-83
2024/01/13 15:47:59;;;;;;;;;37.00;34.33;;;;;3.53;78.33;101685.84;4851250;29;45431;-83
2024/01/13 15:50:25;;;;;;;;;41.33;33.67;;;;;3.44;78.58;101682.72;4851760;29;44943;-82
2024/01/13 15:52:50;;;;;;;;;39.00;35.67;;;;;3.44;79.33;101680.06;4850379;29;45319;-82
2024/01/13 15:55:16;;;;;;;;;38.67;38.33;;;;;3.49;79.13;101681.22;4850949;29;47068;-82
2024/01/13 15:57:42;;;;;;;;;38.33;34.00;;;;;3.52;78.70;101687.59;4852079;29;45838;-82
2024/01/13 16:00:08;;;;;;;;;42.50;36.50;;;;;3.52;79.43;101676.16;4850217;29;45472;-82
2024/01/13 16:02:33;;;;;;;;;38.67;31.00;;;;;3.49;78.97;101670.72;4851251;29;45384;-82
2024/01/13 16:05:42;;;;;;;;;37.00;34.33;;;;;3.78;79.92;101680.28;4850553;29;45720;-82
2024/01/13 16:08:07;;;;;;;;;35.00;32.00;;;;;3.69;78.74;101683.28;4852235;29;45564;-83
2024/01/13 16:10:35;;;;;;;;;47.33;34.00;;;;;3.67;78.81;101677.03;4852293;29;45453;-82
2024/01/13 16:13:00;;;;;;;;;44.00;40.33;;;;;3.71;78.74;101679.00;4859805;29;45363;-81
2024/01/13 16:15:26;;;;;;;;;37.00;32.33;;;;;3.67;78.62;101686.66;4867003;29;47070;-81
2024/01/13 16:17:54;;;;;;;;;47.33;38.00;;;;;3.61;78.71;101687.19;4857324;29;45449;-81
2024/01/13 16:20:20;;;;;;;;;34.33;32.33;;;;;3.50;78.87;101676.06;4843563;29;44786;-82
2024/01/13 16:22:52;;;;;;;;;40.00;30.33;;;;;3.67;79.48;101668.22;4832866;29;45365;-82
2024/01/13 16:25:18;;;;;;;;;46.00;35.33;;;;;3.59;79.51;101663.44;4833591;29;45208;-82
2024/01/13 16:27:44;;;;;;;;;38.33;32.00;;;;;3.67;79.02;101665.59;4850106;29;45437;-82
2024/01/13 16:30:10;;;;;;;;;48.00;36.00;;;;;3.72;79.17;101669.41;4850088;29;44897;-82
2024/01/13 16:32:36;;;;;;;;;53.67;38.67;;;;;3.60;78.61;101657.38;4851271;29;44893;-81
2024/01/13 16:35:01;;;;;;;;;41.33;33.33;;;;;3.64;79.32;101668.06;4850086;29;45498;-82
2024/01/13 16:37:27;;;;;;;;;46.00;41.67;;;;;3.59;78.65;101665.16;4834701;29;45492;-82
2024/01/13 16:39:55;;;;;;;;;32.33;31.33;;;;;3.60;79.42;101656.47;4835445;29;45706;-81
2024/01/13 16:42:21;;;;;;;;;41.00;38.00;;;;;3.48;78.89;101656.66;4837245;29;45441;-81
2024/01/13 16:44:46;;;;;;;;;38.00;34.00;;;;;3.45;79.71;101648.59;4834712;29;46003;-82
2024/01/13 16:47:12;;;;;;;;;32.00;28.33;;;;;3.50;79.52;101659.38;4833565;29;45417;-82
2024/01/13 16:49:37;;;;;;;;;40.33;36.33;;;;;3.46;79.16;101658.31;4834870;29;44827;-81
2024/01/13 16:52:03;;;;;;;;;25.67;24.33;;;;;3.49;78.98;101654.94;4831358;29;45337;-83
2024/01/13 16:54:29;;;;;;;;;45.00;40.33;;;;;3.39;79.64;101643.91;4831526;29;47062;-82
2024/01/13 16:56:55;;;;;;;;;43.33;40.67;;;;;3.44;79.17;101648.53;4849869;29;45617;-82
2024/01/13 16:59:20;;;;;;;;;40.33;35.33;;;;;3.45;79.26;101653.84;4832954;29;45472;-82
2024/01/13 17:01:48;;;;;;;;;34.33;32.33;;;;;3.40;79.44;101644.81;4855825;29;45316;-82
2024/01/13 17:04:13;;;;;;;;;39.33;35.67;;;;;3.46;79.67;101649.50;4851200;29;47260;-82
2024/01/13 17:06:39;;;;;;;;;39.00;28.67;;;;;3.56;79.34;101654.47;4868484;29;44885;-83
2024/01/13 17:09:05;;;;;;;;;37.67;35.33;;;;;3.45;79.41;101650.31;4852891;29;45475;-83